createdAt,value
2019-02-20T00:01:36.589Z,69.02
2019-02-20T00:07:41.154Z,69.76
2019-02-20T00:13:46.051Z,70.17
2019-02-20T00:19:50.689Z,71.70
2019-02-20T00:25:55.471Z,72.54
2019-02-20T00:32:00.441Z,73.83
2019-02-20T00:38:05.538Z,74.54
2019-02-20T00:44:14.460Z,74.38
2019-02-20T00:50:22.304Z,74.10
2019-02-20T00:56:27.109Z,73.97
2019-02-20T01:02:32.313Z,73.94
2019-02-20T01:08:37.006Z,73.92
2019-02-20T01:14:41.718Z,73.80
2019-02-20T01:20:46.518Z,73.67
2019-02-20T01:26:51.219Z,73.57
2019-02-20T01:32:55.768Z,73.29
2019-02-20T01:39:00.883Z,73.43
2019-02-20T01:45:09.549Z,73.74
2019-02-20T01:51:14.174Z,73.41
2019-02-20T01:57:18.761Z,73.24
2019-02-20T02:03:23.593Z,73.00
2019-02-20T02:09:28.491Z,72.20
2019-02-20T02:15:34.025Z,72.97
2019-02-20T02:21:38.582Z,73.08
2019-02-20T02:27:43.224Z,73.32
2019-02-20T02:33:47.940Z,73.23
2019-02-20T02:39:53.357Z,73.45
2019-02-20T02:45:58.347Z,73.44
2019-02-20T02:52:03.021Z,73.49
2019-02-20T02:58:07.964Z,73.61
2019-02-20T03:04:12.740Z,73.50
2019-02-20T03:10:17.519Z,73.83
2019-02-20T03:16:22.329Z,74.20
2019-02-20T03:22:27.631Z,74.39
2019-02-20T03:28:32.546Z,74.57
2019-02-20T03:34:37.323Z,74.68
2019-02-20T03:40:41.906Z,74.62
2019-02-20T03:46:46.690Z,74.70
2019-02-20T03:52:51.519Z,74.76
2019-02-20T03:58:56.258Z,74.68
2019-02-20T04:05:01.388Z,74.41
2019-02-20T04:11:06.184Z,74.54
2019-02-20T04:17:11.412Z,74.53
2019-02-20T04:23:16.245Z,74.73
2019-02-20T04:29:20.963Z,74.67
2019-02-20T04:35:25.989Z,74.91
2019-02-20T04:41:31.126Z,74.85
2019-02-20T04:47:35.896Z,74.80
2019-02-20T04:53:40.449Z,74.93
2019-02-20T04:59:45.037Z,75.12
2019-02-20T05:05:49.713Z,75.10
2019-02-20T05:11:55.252Z,74.94
2019-02-20T05:18:00.231Z,74.93
2019-02-20T05:24:04.930Z,74.83
2019-02-20T05:30:10.175Z,74.90
2019-02-20T05:36:14.816Z,74.16
2019-02-20T05:42:21.149Z,74.40
2019-02-20T05:48:25.902Z,75.32
2019-02-20T05:54:34.352Z,75.32
2019-02-20T06:00:37.372Z,75.50
2019-02-20T06:06:42.085Z,75.82
2019-02-20T06:12:46.844Z,75.77
2019-02-20T06:18:52.311Z,75.72
2019-02-20T06:24:56.972Z,76.12
2019-02-20T06:31:01.865Z,76.50
2019-02-20T06:37:06.719Z,76.60
2019-02-20T06:43:11.866Z,76.78
2019-02-20T06:49:16.500Z,77.19
2019-02-20T06:55:21.073Z,76.94
2019-02-20T07:01:26.452Z,77.22
2019-02-20T07:08:08.394Z,77.22
2019-02-20T07:14:45.884Z,76.40
2019-02-20T07:21:09.686Z,76.44
2019-02-20T07:27:24.739Z,77.03
2019-02-20T07:33:29.435Z,76.95
2019-02-20T07:39:34.633Z,76.83
2019-02-20T07:45:39.186Z,76.29
2019-02-20T07:51:43.759Z,75.62
2019-02-20T07:57:48.385Z,76.16
2019-02-20T08:03:52.956Z,75.99
2019-02-20T08:09:57.521Z,75.39
2019-02-20T08:16:02.349Z,74.41
2019-02-20T08:22:08.803Z,74.52
2019-02-20T08:28:13.651Z,73.57
2019-02-20T08:34:18.217Z,72.88
2019-02-20T08:40:22.844Z,72.75
2019-02-20T08:46:27.543Z,72.62
2019-02-20T08:52:32.743Z,70.92
2019-02-20T08:58:37.503Z,69.67
2019-02-20T09:04:42.150Z,71.14
2019-02-20T09:10:46.885Z,70.57
2019-02-20T09:16:51.609Z,68.48
2019-02-20T09:22:56.215Z,68.17
2019-02-20T09:29:00.963Z,68.22
2019-02-20T09:35:07.642Z,68.03
2019-02-20T09:41:12.412Z,66.79
2019-02-20T09:47:17.097Z,66.32
2019-02-20T09:53:21.663Z,65.18
2019-02-20T09:59:26.519Z,64.05
2019-02-20T10:05:31.573Z,63.98
2019-02-20T10:11:36.183Z,63.63
2019-02-20T10:17:40.821Z,64.20
2019-02-20T10:23:46.332Z,62.75
2019-02-20T10:29:50.919Z,62.40
2019-02-20T10:35:55.777Z,62.25
2019-02-20T10:42:00.818Z,60.17
2019-02-20T10:48:05.540Z,61.40
2019-02-20T10:54:10.737Z,60.46
2019-02-20T11:00:24.641Z,60.55
2019-02-20T11:06:30.328Z,59.45
2019-02-20T11:12:35.037Z,59.04
2019-02-20T11:18:39.823Z,58.78
2019-02-20T11:24:44.515Z,57.39
2019-02-20T11:30:49.080Z,55.96
2019-02-20T11:36:53.787Z,56.13
2019-02-20T11:42:59.132Z,55.67
2019-02-20T11:49:03.926Z,56.01
2019-02-20T11:55:14.112Z,53.98
2019-02-20T12:01:18.825Z,54.52
2019-02-20T12:07:23.523Z,55.47
2019-02-20T12:13:28.171Z,54.91
2019-02-20T12:19:33.194Z,54.54
2019-02-20T12:25:37.951Z,54.10
2019-02-20T12:31:42.720Z,53.82
2019-02-20T12:37:47.299Z,53.11
2019-02-20T12:43:51.994Z,53.28
2019-02-20T12:49:56.802Z,53.03
2019-02-20T12:56:09.868Z,51.57
2019-02-20T13:02:08.741Z,52.19
2019-02-20T14:00:59.944Z,49.68
2019-02-20T14:07:04.922Z,52.56
2019-02-20T14:13:09.851Z,54.26
2019-02-20T14:19:14.430Z,53.17
2019-02-20T14:25:19.308Z,53.03
2019-02-20T14:31:24.128Z,53.23
2019-02-20T14:37:29.608Z,52.72
2019-02-20T14:43:34.986Z,53.24
2019-02-20T14:49:39.659Z,52.33
2019-02-20T14:55:44.734Z,52.00
2019-02-20T15:01:49.494Z,51.96
2019-02-20T15:07:54.135Z,53.21
2019-02-20T15:13:59.062Z,52.66
2019-02-20T15:20:04.171Z,53.44
2019-02-20T15:26:09.390Z,53.33
2019-02-20T15:32:13.962Z,52.82
2019-02-20T15:38:18.538Z,52.79
2019-02-20T15:44:23.429Z,52.91
2019-02-20T15:50:27.998Z,52.15
2019-02-20T15:56:32.706Z,52.19
2019-02-20T16:02:37.344Z,52.54
2019-02-20T16:08:41.991Z,52.24
2019-02-20T16:14:46.552Z,53.58
2019-02-20T16:20:51.297Z,54.78
2019-02-20T16:26:55.938Z,55.48
2019-02-20T16:33:01.453Z,56.03
2019-02-20T16:39:07.261Z,56.89
2019-02-20T16:45:24.319Z,58.03
2019-02-20T16:51:29.321Z,58.52
2019-02-20T16:57:34.172Z,59.85
2019-02-20T17:03:39.065Z,61.20
2019-02-20T17:09:44.052Z,62.23
2019-02-20T17:15:48.770Z,63.38
2019-02-20T17:21:53.460Z,64.54
2019-02-20T17:28:05.501Z,65.34
2019-02-20T17:34:04.919Z,65.87
2019-02-20T17:40:13.961Z,66.17
2019-02-20T17:46:18.763Z,66.32
2019-02-20T17:52:23.497Z,66.84
2019-02-20T17:58:28.719Z,67.63
2019-02-20T18:04:35.945Z,68.50
2019-02-20T18:10:40.382Z,68.78
2019-02-20T18:16:45.015Z,69.36
2019-02-20T18:22:49.749Z,69.80
2019-02-20T18:28:54.313Z,70.21
2019-02-20T18:34:58.945Z,70.79
2019-02-20T18:41:04.022Z,70.88
2019-02-20T18:47:08.661Z,71.11
2019-02-20T18:53:13.364Z,71.64
2019-02-20T18:59:17.998Z,72.44
2019-02-20T19:05:22.722Z,72.62
2019-02-20T19:11:37.741Z,73.34
2019-02-20T19:18:15.714Z,73.70
2019-02-20T19:25:15.180Z,73.97
2019-02-20T19:31:41.097Z,74.05
2019-02-20T19:38:09.504Z,74.66
2019-02-20T19:44:38.446Z,74.43
2019-02-20T19:51:08.807Z,75.28
2019-02-20T19:57:39.233Z,75.34
2019-02-20T20:04:09.103Z,75.53
2019-02-20T20:10:26.734Z,75.61
2019-02-20T20:16:52.322Z,75.92
2019-02-20T20:23:26.875Z,75.99
2019-02-20T20:30:18.923Z,76.02
2019-02-20T20:37:14.483Z,76.15
2019-02-20T20:43:51.623Z,76.65
2019-02-20T20:50:06.788Z,76.86
2019-02-20T20:56:43.438Z,77.27
2019-02-20T21:02:52.763Z,77.89
2019-02-20T21:09:02.461Z,77.87
2019-02-20T21:15:31.241Z,78.10
2019-02-20T21:22:03.041Z,78.19
2019-02-20T21:28:31.194Z,77.84
2019-02-20T21:35:01.587Z,78.18
2019-02-20T21:41:16.669Z,77.27
2019-02-20T21:47:43.664Z,77.86
2019-02-20T21:53:59.404Z,78.02
2019-02-20T22:00:27.890Z,77.82
2019-02-20T22:06:56.819Z,77.61
2019-02-20T22:13:27.571Z,77.45
2019-02-20T22:19:45.636Z,77.88
2019-02-20T22:26:09.829Z,78.22
2019-02-20T22:32:43.265Z,78.28
2019-02-20T22:39:18.110Z,78.48
2019-02-20T22:45:36.792Z,78.70
2019-02-20T22:52:04.237Z,78.60
2019-02-20T22:58:21.796Z,78.51
2019-02-20T23:04:36.614Z,79.14
2019-02-20T23:10:54.316Z,79.33
2019-02-20T23:16:58.986Z,79.40
2019-02-20T23:23:04.005Z,79.25
2019-02-20T23:29:08.601Z,79.47
2019-02-20T23:35:13.350Z,78.92
2019-02-20T23:41:18.088Z,79.32
2019-02-20T23:47:22.722Z,79.79
2019-02-20T23:53:27.310Z,80.05
2019-02-20T23:59:32.413Z,81.06
